Time;durP1;ratioP1;P1;durP2;ratioP2;P2;SDS_P1;SDS_P2;PMS_P1;PMS_P2;Temp;Humidity;BMP_temperature;BMP_pressure;BME280_temperature;BME280_humidity;BME280_pressure;Samples;Min_cycle;Max_cycle;Signal;HPM_P1;HPM_P2
2022/01/29 00:00:19;;;;;;;17.42;10.05;;;2.50;99.90;;;;;;459866;258;27488;-68
2022/01/29 00:02:20;;;;;;;18.85;9.80;;;2.50;99.90;;;;;;459868;258;27498;-68
2022/01/29 00:04:21;;;;;;;17.75;10.68;;;2.50;99.90;;;;;;459870;255;27502;-68
2022/01/29 00:06:22;;;;;;;20.02;11.35;;;2.50;99.90;;;;;;459852;258;28059;-68
2022/01/29 00:08:24;;;;;;;23.35;10.77;;;2.40;99.90;;;;;;459852;258;28681;-68
2022/01/29 00:10:25;;;;;;;17.87;9.75;;;2.50;99.90;;;;;;459850;258;27528;-68
2022/01/29 00:12:26;;;;;;;19.90;11.35;;;2.50;99.90;;;;;;459869;258;27495;-68
2022/01/29 00:14:27;;;;;;;19.05;10.52;;;2.50;99.90;;;;;;459875;258;27467;-68
2022/01/29 00:16:29;;;;;;;15.43;9.63;;;2.50;99.90;;;;;;459868;258;27566;-68
2022/01/29 00:18:30;;;;;;;19.08;10.02;;;2.50;99.90;;;;;;459877;258;27559;-68
2022/01/29 00:20:31;;;;;;;22.05;11.52;;;2.50;99.90;;;;;;459892;258;27466;-68
2022/01/29 00:22:32;;;;;;;19.45;11.55;;;2.40;99.90;;;;;;459878;258;27559;-68
2022/01/29 00:24:34;;;;;;;17.75;10.50;;;2.50;99.90;;;;;;459862;258;27923;-68
2022/01/29 00:26:35;;;;;;;21.73;12.07;;;2.40;99.90;;;;;;459866;258;28062;-68
2022/01/29 00:28:36;;;;;;;19.30;11.68;;;2.40;99.90;;;;;;459840;258;27488;-68
2022/01/29 00:30:42;;;;;;;24.25;11.30;;;2.40;99.90;;;;;;459869;258;27462;-68
2022/01/29 00:32:39;;;;;;;21.83;11.43;;;2.40;99.90;;;;;;459855;258;27513;-68
2022/01/29 00:34:40;;;;;;;20.52;10.95;;;2.40;99.90;;;;;;459869;258;27474;-68
2022/01/29 00:36:41;;;;;;;16.70;9.73;;;2.40;99.90;;;;;;459867;258;28071;-68
2022/01/29 00:38:43;;;;;;;19.17;9.90;;;2.40;99.90;;;;;;459888;258;28065;-68
2022/01/29 00:40:45;;;;;;;21.08;11.80;;;2.40;99.90;;;;;;459884;254;29079;-68
2022/01/29 00:42:45;;;;;;;21.48;11.43;;;2.40;99.90;;;;;;459864;258;27502;-68
2022/01/29 00:44:46;;;;;;;19.45;12.32;;;2.40;99.90;;;;;;459852;255;27528;-68
2022/01/29 00:46:48;;;;;;;19.58;10.93;;;2.40;99.90;;;;;;459887;258;27456;-68
2022/01/29 00:48:49;;;;;;;17.45;10.85;;;2.40;99.90;;;;;;459887;258;27574;-68
2022/01/29 00:50:50;;;;;;;17.08;10.30;;;2.40;99.90;;;;;;459845;258;27470;-68
2022/01/29 00:52:51;;;;;;;18.83;9.88;;;2.50;99.90;;;;;;459879;258;27533;-68
2022/01/29 00:54:53;;;;;;;17.62;10.13;;;2.40;99.90;;;;;;459872;258;28712;-68
2022/01/29 00:56:54;;;;;;;23.15;12.57;;;2.50;99.90;;;;;;459902;258;28009;-68
2022/01/29 00:58:55;;;;;;;20.83;11.82;;;2.40;99.90;;;;;;459877;258;27486;-68
2022/01/29 01:00:56;;;;;;;19.10;11.63;;;2.40;99.90;;;;;;459894;258;27565;-68
2022/01/29 01:02:58;;;;;;;22.67;12.15;;;2.40;99.90;;;;;;459877;258;27486;-68
2022/01/29 01:04:59;;;;;;;22.58;12.27;;;2.40;99.90;;;;;;459910;258;27507;-69
2022/01/29 01:07:00;;;;;;;20.12;11.35;;;2.30;99.90;;;;;;459887;258;27467;-68
2022/01/29 01:09:01;;;;;;;23.87;12.98;;;2.40;99.90;;;;;;459902;258;28032;-68
2022/01/29 01:11:04;;;;;;;21.12;12.32;;;2.30;99.90;;;;;;459879;258;28017;-68
2022/01/29 01:13:04;;;;;;;23.52;13.82;;;2.40;99.90;;;;;;459872;258;27942;-68
2022/01/29 01:15:05;;;;;;;23.80;12.93;;;2.40;99.90;;;;;;459903;258;27575;-68
2022/01/29 01:17:06;;;;;;;26.00;13.10;;;2.40;99.90;;;;;;459898;258;27459;-68
2022/01/29 01:19:08;;;;;;;22.42;12.20;;;2.30;99.90;;;;;;459869;258;27586;-68
2022/01/29 01:21:09;;;;;;;23.70;12.63;;;2.30;99.90;;;;;;459865;258;27554;-68
2022/01/29 01:23:10;;;;;;;22.85;11.73;;;2.30;99.90;;;;;;459879;258;27535;-68
2022/01/29 01:25:11;;;;;;;24.00;12.98;;;2.30;99.90;;;;;;459884;258;27947;-68
2022/01/29 01:27:13;;;;;;;22.50;12.40;;;2.30;99.90;;;;;;459874;258;28126;-68
2022/01/29 01:29:14;;;;;;;20.58;12.10;;;2.30;99.90;;;;;;459849;258;27566;-68
2022/01/29 01:31:15;;;;;;;28.60;13.07;;;2.30;99.90;;;;;;459870;258;27501;-68
2022/01/29 01:33:16;;;;;;;27.13;13.07;;;2.30;99.90;;;;;;459898;258;27526;-68
2022/01/29 01:35:23;;;;;;;24.65;14.80;;;2.30;99.90;;;;;;459882;258;27518;-68
2022/01/29 01:37:33;;;;;;;20.80;12.55;;;2.30;99.90;;;;;;459860;258;27563;-68
2022/01/29 01:39:25;;;;;;;23.95;13.43;;;2.30;99.90;;;;;;459886;258;27538;-68
2022/01/29 01:41:25;;;;;;;24.60;12.68;;;2.30;99.90;;;;;;459892;258;28149;-68
2022/01/29 01:43:23;;;;;;;21.27;12.48;;;2.30;99.90;;;;;;459882;258;27506;-68
2022/01/29 01:45:24;;;;;;;21.60;12.73;;;2.30;99.90;;;;;;459873;258;27503;-68
2022/01/29 01:47:25;;;;;;;22.65;12.25;;;2.30;99.90;;;;;;459867;258;27527;-68
2022/01/29 01:49:27;;;;;;;22.65;13.25;;;2.30;99.90;;;;;;459879;258;27475;-68
2022/01/29 01:51:29;;;;;;;23.95;12.93;;;2.30;99.90;;;;;;459871;258;27511;-68
2022/01/29 01:53:30;;;;;;;25.35;13.50;;;2.30;99.90;;;;;;459882;258;27503;-68
2022/01/29 01:55:32;;;;;;;23.85;12.18;;;2.30;99.90;;;;;;459844;258;28838;-68
2022/01/29 01:57:33;;;;;;;23.65;12.95;;;2.30;99.90;;;;;;459874;258;28091;-68
2022/01/29 01:59:34;;;;;;;21.20;11.80;;;2.30;99.90;;;;;;459878;258;27527;-68
2022/01/29 02:01:35;;;;;;;20.35;12.35;;;2.30;99.90;;;;;;459872;258;27477;-68
2022/01/29 02:03:37;;;;;;;23.45;12.88;;;2.30;99.90;;;;;;459858;258;27486;-68
2022/01/29 02:05:38;;;;;;;21.90;12.88;;;2.20;99.90;;;;;;459865;258;27478;-68
2022/01/29 02:07:39;;;;;;;25.40;13.55;;;2.30;99.90;;;;;;459871;258;27476;-68
2022/01/29 02:09:40;;;;;;;21.33;12.23;;;2.30;99.90;;;;;;459887;258;27519;-68
2022/01/29 02:11:42;;;;;;;30.00;14.25;;;2.30;99.90;;;;;;459888;258;28026;-68
2022/01/29 02:13:43;;;;;;;25.50;14.60;;;2.30;99.90;;;;;;459870;258;28005;-68
2022/01/29 02:15:47;;;;;;;25.08;15.00;;;2.30;99.90;;;;;;459889;258;27574;-68
2022/01/29 02:17:46;;;;;;;25.20;12.82;;;2.20;99.90;;;;;;459872;258;27466;-68
2022/01/29 02:19:47;;;;;;;23.55;13.35;;;2.30;99.90;;;;;;459861;258;27521;-68
2022/01/29 02:21:48;;;;;;;30.20;14.50;;;2.20;99.90;;;;;;459855;258;27474;-68
2022/01/29 02:23:49;;;;;;;25.70;13.80;;;2.20;99.90;;;;;;459861;258;27595;-68
2022/01/29 02:25:51;;;;;;;22.73;12.75;;;2.20;99.90;;;;;;459883;258;27505;-68
2022/01/29 02:27:52;;;;;;;24.12;12.57;;;2.20;99.90;;;;;;459871;258;27912;-68
2022/01/29 02:29:53;;;;;;;24.05;13.15;;;2.20;99.90;;;;;;459877;258;28103;-68
2022/01/29 02:31:54;;;;;;;28.98;14.35;;;2.20;99.90;;;;;;459862;258;27460;-68
2022/01/29 02:33:56;;;;;;;24.35;13.23;;;2.20;99.90;;;;;;459890;258;27532;-68
2022/01/29 02:35:57;;;;;;;22.62;12.65;;;2.20;99.90;;;;;;459872;258;27568;-68
2022/01/29 02:37:58;;;;;;;24.25;12.40;;;2.20;99.90;;;;;;459875;258;27468;-68
2022/01/29 02:39:59;;;;;;;32.10;14.00;;;2.20;99.90;;;;;;459880;258;27510;-68
2022/01/29 02:42:01;;;;;;;26.42;12.23;;;2.20;99.90;;;;;;459871;258;28415;-68
2022/01/29 02:44:04;;;;;;;23.42;12.65;;;2.20;99.90;;;;;;459885;258;27923;-68
2022/01/29 02:48:20;;;;;;;25.27;12.32;;;2.20;99.90;;;;;;459862;258;28076;-68
2022/01/29 02:50:21;;;;;;;22.50;12.02;;;2.30;99.90;;;;;;459863;258;27502;-68
2022/01/29 02:52:22;;;;;;;21.98;11.43;;;2.30;99.90;;;;;;459884;258;27459;-68
2022/01/29 02:54:23;;;;;;;19.80;10.52;;;2.30;99.90;;;;;;459879;258;27586;-68
2022/01/29 02:56:24;;;;;;;22.05;10.75;;;2.30;99.90;;;;;;459878;258;27472;-68
2022/01/29 02:58:26;;;;;;;23.55;12.30;;;2.20;99.90;;;;;;459874;258;27567;-68
2022/01/29 03:00:27;;;;;;;22.00;12.55;;;2.20;99.90;;;;;;459860;258;28475;-68
2022/01/29 03:02:28;;;;;;;24.48;12.30;;;2.20;99.90;;;;;;459892;258;27887;-68
2022/01/29 03:04:29;;;;;;;27.55;12.35;;;2.20;99.90;;;;;;459891;258;27947;-69
2022/01/29 03:06:31;;;;;;;27.98;13.43;;;2.20;99.90;;;;;;459889;258;27447;-68
2022/01/29 03:08:32;;;;;;;23.80;11.90;;;2.20;99.90;;;;;;459856;258;27523;-68
2022/01/29 03:10:33;;;;;;;21.48;11.05;;;2.20;99.90;;;;;;459908;258;27519;-68
2022/01/29 03:12:37;;;;;;;22.02;11.55;;;2.20;99.90;;;;;;459864;258;27550;-68
2022/01/29 03:14:36;;;;;;;27.00;11.88;;;2.20;99.90;;;;;;459890;258;27487;-68
2022/01/29 03:16:37;;;;;;;21.87;11.55;;;2.30;99.90;;;;;;459865;258;27936;-68
2022/01/29 03:18:38;;;;;;;25.05;12.30;;;2.20;99.90;;;;;;459874;258;28076;-68
2022/01/29 03:20:39;;;;;;;25.65;12.77;;;2.20;99.90;;;;;;459862;258;27523;-68
2022/01/29 03:22:41;;;;;;;26.48;11.90;;;2.20;99.90;;;;;;459884;258;27471;-68
2022/01/29 03:24:42;;;;;;;27.08;13.48;;;2.20;99.90;;;;;;459864;258;27499;-69
2022/01/29 03:26:43;;;;;;;27.30;12.73;;;2.20;99.90;;;;;;459857;258;27590;-68
2022/01/29 03:28:44;;;;;;;21.25;11.40;;;2.20;99.90;;;;;;459898;258;27579;-68
2022/01/29 03:30:46;;;;;;;20.95;11.88;;;2.20;99.90;;;;;;459877;258;27493;-68
2022/01/29 03:32:47;;;;;;;27.33;11.77;;;2.20;99.90;;;;;;459870;258;27943;-68
2022/01/29 03:34:48;;;;;;;26.12;13.15;;;2.10;99.90;;;;;;459858;258;28069;-68
2022/01/29 03:36:50;;;;;;;22.95;11.23;;;2.10;99.90;;;;;;459870;258;27482;-68
2022/01/29 03:38:51;;;;;;;26.33;12.73;;;2.10;99.90;;;;;;459878;258;27457;-68
2022/01/29 03:40:53;;;;;;;28.33;13.50;;;2.10;99.90;;;;;;459880;258;27511;-68
2022/01/29 03:43:06;;;;;;;22.15;11.98;;;2.10;99.90;;;;;;459858;258;27602;-68
2022/01/29 03:44:58;;;;;;;22.15;12.07;;;2.10;99.90;;;;;;459695;258;27653;-68
2022/01/29 03:46:59;;;;;;;24.05;11.82;;;2.10;99.90;;;;;;459854;258;27583;-68
2022/01/29 03:49:00;;;;;;;24.40;11.40;;;2.10;99.90;;;;;;459873;258;28053;-68
2022/01/29 03:51:01;;;;;;;21.45;12.48;;;2.10;99.90;;;;;;459887;258;28048;-68
2022/01/29 03:53:02;;;;;;;19.40;10.88;;;2.10;99.90;;;;;;459872;258;27555;-68
2022/01/29 03:55:05;;;;;;;19.87;10.38;;;2.10;99.90;;;;;;459879;258;27575;-68
2022/01/29 03:57:05;;;;;;;18.95;9.80;;;2.10;99.90;;;;;;459841;258;27564;-68
2022/01/29 03:59:06;;;;;;;17.30;9.52;;;2.10;99.90;;;;;;459894;258;27514;-68
2022/01/29 04:01:07;;;;;;;18.55;10.18;;;2.10;99.90;;;;;;459871;258;27471;-68
2022/01/29 04:03:09;;;;;;;22.40;11.15;;;2.10;99.90;;;;;;459841;258;27513;-68
2022/01/29 04:05:10;;;;;;;17.65;9.57;;;2.10;99.90;;;;;;459858;258;27970;-68
2022/01/29 04:07:12;;;;;;;14.55;8.75;;;2.10;99.90;;;;;;459880;258;27978;-68
2022/01/29 04:09:12;;;;;;;13.77;8.40;;;2.10;99.90;;;;;;459873;258;27515;-68
2022/01/29 04:11:14;;;;;;;18.35;9.25;;;2.10;99.90;;;;;;459886;258;27612;-68
2022/01/29 04:13:15;;;;;;;18.70;8.63;;;2.10;99.90;;;;;;459844;258;27532;-68
2022/01/29 04:15:16;;;;;;;15.18;8.30;;;2.10;99.90;;;;;;459867;258;27529;-68
2022/01/29 04:17:17;;;;;;;16.37;8.75;;;2.10;99.90;;;;;;459887;258;27562;-68
2022/01/29 04:19:19;;;;;;;15.82;9.20;;;2.20;99.90;;;;;;459854;258;27526;-68
2022/01/29 04:21:20;;;;;;;19.92;9.55;;;2.20;99.90;;;;;;459846;258;27524;-68
2022/01/29 04:23:21;;;;;;;17.73;9.38;;;2.10;99.90;;;;;;459851;258;27502;-68
2022/01/29 04:25:23;;;;;;;17.75;9.80;;;2.10;99.90;;;;;;459878;258;28147;-68
2022/01/29 04:27:33;;;;;;;17.15;8.93;;;2.10;99.90;;;;;;459858;258;27969;-68
2022/01/29 04:29:28;;;;;;;15.15;9.10;;;2.10;99.90;;;;;;459867;258;27959;-68
2022/01/29 04:31:35;;;;;;;16.65;8.65;;;2.20;99.90;;;;;;459853;258;27470;-68
2022/01/29 04:33:30;;;;;;;12.85;8.38;;;2.10;99.90;;;;;;459849;258;27494;-68
2022/01/29 04:35:31;;;;;;;17.70;9.27;;;2.20;99.90;;;;;;459853;258;27499;-68
2022/01/29 04:37:33;;;;;;;15.25;9.32;;;2.20;99.90;;;;;;459869;258;27915;-68
2022/01/29 04:39:34;;;;;;;17.15;9.25;;;2.20;99.90;;;;;;459874;258;27609;-68
2022/01/29 04:41:35;;;;;;;15.75;8.65;;;2.20;99.90;;;;;;459862;258;28062;-68
2022/01/29 04:43:36;;;;;;;17.35;8.88;;;2.10;99.90;;;;;;459858;258;27926;-68
2022/01/29 04:45:38;;;;;;;13.68;8.55;;;2.20;99.90;;;;;;459868;258;28078;-68
2022/01/29 04:47:39;;;;;;;17.02;8.90;;;2.20;99.90;;;;;;459882;258;27535;-68
2022/01/29 04:49:40;;;;;;;14.68;9.02;;;2.10;99.90;;;;;;459873;258;27571;-68
2022/01/29 04:51:41;;;;;;;18.10;9.35;;;2.10;99.90;;;;;;459835;258;27521;-68
2022/01/29 04:53:43;;;;;;;18.70;9.80;;;2.10;99.90;;;;;;459819;258;27472;-68
2022/01/29 04:55:44;;;;;;;17.65;10.02;;;2.10;99.90;;;;;;459828;258;27523;-68
2022/01/29 04:57:45;;;;;;;14.90;8.52;;;2.10;99.90;;;;;;459853;258;27519;-68
2022/01/29 04:59:46;;;;;;;14.25;8.10;;;2.10;99.90;;;;;;459853;258;27479;-68
2022/01/29 05:01:48;;;;;;;19.35;10.25;;;2.10;99.90;;;;;;459829;258;28089;-68
2022/01/29 05:03:49;;;;;;;18.15;8.95;;;2.10;99.90;;;;;;459843;258;27926;-68
2022/01/29 05:05:50;;;;;;;19.70;9.50;;;2.10;99.90;;;;;;459867;258;27461;-68
2022/01/29 05:07:51;;;;;;;20.02;8.88;;;2.10;99.90;;;;;;459861;258;27495;-68
2022/01/29 05:09:53;;;;;;;15.25;9.25;;;2.10;99.90;;;;;;459855;258;27467;-68
2022/01/29 05:11:55;;;;;;;17.25;9.70;;;2.10;99.90;;;;;;459860;258;27599;-68
2022/01/29 05:13:55;;;;;;;16.15;9.45;;;2.10;99.90;;;;;;459847;258;27498;-68
2022/01/29 05:27:18;;;;;;;17.40;9.38;;;2.00;99.90;;;;;;459865;258;28058;-69
2022/01/29 05:29:19;;;;;;;21.58;10.82;;;2.00;99.90;;;;;;460340;258;27935;-69
2022/01/29 05:31:20;;;;;;;17.62;9.65;;;2.00;99.90;;;;;;459841;258;27506;-68
2022/01/29 05:33:21;;;;;;;20.48;9.57;;;2.00;99.90;;;;;;459840;258;27479;-68
2022/01/29 05:35:23;;;;;;;18.90;9.93;;;2.00;99.90;;;;;;459882;258;27463;-69
2022/01/29 05:37:24;;;;;;;20.98;9.63;;;2.00;99.90;;;;;;459882;258;27529;-69
2022/01/29 05:39:25;;;;;;;19.70;9.43;;;1.90;99.90;;;;;;459889;258;27467;-69
2022/01/29 05:41:28;;;;;;;20.15;10.27;;;1.90;99.90;;;;;;459867;258;27510;-68
2022/01/29 05:43:28;;;;;;;16.62;9.45;;;1.90;99.90;;;;;;459881;258;28428;-68
2022/01/29 05:45:29;;;;;;;22.35;10.95;;;1.90;99.90;;;;;;459899;258;27551;-69
2022/01/29 05:47:30;;;;;;;19.58;10.10;;;1.90;99.90;;;;;;459910;258;27565;-69
2022/01/29 05:49:32;;;;;;;23.17;9.88;;;1.90;99.90;;;;;;459903;258;27477;-69
2022/01/29 05:51:33;;;;;;;18.48;9.68;;;1.90;99.90;;;;;;459888;258;27596;-69
2022/01/29 05:53:35;;;;;;;20.35;9.52;;;1.90;99.90;;;;;;459918;258;27509;-69
2022/01/29 05:55:37;;;;;;;15.38;8.82;;;1.90;99.90;;;;;;459900;258;27498;-68
2022/01/29 05:57:38;;;;;;;19.92;10.32;;;1.90;99.90;;;;;;459879;258;27904;-68
2022/01/29 05:59:39;;;;;;;21.85;10.27;;;1.90;99.90;;;;;;459895;258;28026;-68
2022/01/29 06:01:41;;;;;;;17.62;10.40;;;1.90;99.90;;;;;;459878;258;28078;-68
2022/01/29 06:03:42;;;;;;;19.02;10.70;;;1.90;99.90;;;;;;459883;258;27451;-68
2022/01/29 06:05:43;;;;;;;15.68;9.20;;;2.00;99.90;;;;;;459843;258;27582;-69
2022/01/29 06:07:44;;;;;;;18.80;9.48;;;2.00;99.90;;;;;;459918;258;27586;-69
2022/01/29 06:09:46;;;;;;;19.37;10.45;;;2.00;99.90;;;;;;459893;258;27477;-69
2022/01/29 06:11:47;;;;;;;14.73;9.00;;;2.00;99.90;;;;;;459867;258;27598;-68
2022/01/29 06:13:48;;;;;;;17.23;8.57;;;2.00;99.90;;;;;;459882;258;27466;-69
2022/01/29 06:15:49;;;;;;;14.95;8.15;;;2.00;99.90;;;;;;459870;258;27970;-69
2022/01/29 06:17:51;;;;;;;18.58;9.57;;;1.90;99.90;;;;;;459900;258;28022;-69
2022/01/29 06:19:52;;;;;;;18.23;8.77;;;2.00;99.90;;;;;;460358;258;27934;-68
2022/01/29 06:21:53;;;;;;;17.40;8.40;;;2.00;99.90;;;;;;459860;258;27550;-68
2022/01/29 06:23:54;;;;;;;15.93;9.15;;;2.00;99.90;;;;;;459863;258;27502;-69
2022/01/29 06:25:56;;;;;;;15.90;8.23;;;1.90;99.90;;;;;;459912;258;27535;-68
2022/01/29 06:27:57;;;;;;;18.25;9.45;;;2.00;99.90;;;;;;459888;258;27632;-69
2022/01/29 06:29:58;;;;;;;16.83;9.13;;;2.00;99.90;;;;;;459873;258;27528;-69
2022/01/29 06:31:59;;;;;;;16.87;8.60;;;2.00;99.90;;;;;;459865;258;27610;-68
2022/01/29 06:34:01;;;;;;;17.40;9.00;;;1.90;99.90;;;;;;459865;258;27503;-68
2022/01/29 06:36:02;;;;;;;16.02;9.65;;;1.90;99.90;;;;;;459894;258;27916;-68
2022/01/29 06:38:03;;;;;;;17.92;9.90;;;1.90;99.90;;;;;;459886;258;27983;-68
2022/01/29 06:40:04;;;;;;;17.87;9.15;;;1.90;99.90;;;;;;459871;258;27973;-69
2022/01/29 06:42:06;;;;;;;18.33;9.10;;;1.90;99.90;;;;;;459860;258;27567;-68
2022/01/29 06:44:07;;;;;;;16.17;9.05;;;1.90;99.90;;;;;;459863;258;27594;-69
2022/01/29 06:46:08;;;;;;;16.60;8.80;;;1.90;99.90;;;;;;459768;258;27455;-68
2022/01/29 06:48:09;;;;;;;17.25;9.93;;;1.90;99.90;;;;;;459707;258;27495;-69
2022/01/29 06:50:11;;;;;;;17.52;8.77;;;1.90;99.90;;;;;;459656;258;27456;-68
2022/01/29 06:52:12;;;;;;;15.52;8.80;;;1.90;99.90;;;;;;459678;258;27498;-69
2022/01/29 06:54:13;;;;;;;13.30;7.95;;;1.90;99.90;;;;;;459781;258;27506;-68
2022/01/29 06:56:14;;;;;;;11.18;7.45;;;1.90;99.90;;;;;;459872;258;27986;-68
2022/01/29 06:58:16;;;;;;;14.60;9.13;;;1.90;99.90;;;;;;459869;258;28013;-69
2022/01/29 07:00:17;;;;;;;16.48;9.68;;;1.90;99.90;;;;;;459849;258;27934;-68
2022/01/29 07:02:18;;;;;;;13.23;8.25;;;1.90;99.90;;;;;;459874;258;27554;-68
2022/01/29 07:04:19;;;;;;;16.95;8.85;;;1.90;99.90;;;;;;459896;258;27499;-68
2022/01/29 07:06:21;;;;;;;18.25;8.95;;;2.00;99.90;;;;;;459885;258;27474;-68
2022/01/29 07:08:22;;;;;;;12.52;7.40;;;2.00;99.90;;;;;;459876;258;27575;-68
2022/01/29 07:10:23;;;;;;;12.43;8.18;;;2.00;99.90;;;;;;459845;258;27470;-68
2022/01/29 07:12:25;;;;;;;13.68;8.55;;;2.00;99.90;;;;;;459875;258;27502;-68
2022/01/29 07:14:26;;;;;;;14.85;8.20;;;1.90;99.90;;;;;;459878;258;27574;-68
2022/01/29 07:16:27;;;;;;;16.80;8.75;;;1.90;99.90;;;;;;459867;258;27974;-69
2022/01/29 07:18:28;;;;;;;13.90;8.60;;;2.00;99.90;;;;;;459877;258;27993;-68
2022/01/29 07:20:29;;;;;;;15.52;8.38;;;2.00;99.90;;;;;;459882;258;28074;-68
2022/01/29 07:22:31;;;;;;;11.93;7.62;;;2.00;99.90;;;;;;459870;258;27467;-68
2022/01/29 07:24:32;;;;;;;13.30;7.93;;;2.00;99.90;;;;;;459865;258;27495;-69
2022/01/29 07:26:33;;;;;;;14.27;7.68;;;2.00;99.90;;;;;;459868;258;27528;-68
2022/01/29 07:28:34;;;;;;;12.70;7.82;;;2.00;99.90;;;;;;459847;258;27590;-68
2022/01/29 07:30:36;;;;;;;12.27;7.60;;;2.00;99.90;;;;;;459878;258;27510;-68
2022/01/29 07:32:37;;;;;;;13.20;7.93;;;2.00;99.90;;;;;;459879;258;27474;-69
2022/01/29 07:34:38;;;;;;;15.48;8.63;;;2.00;99.90;;;;;;459875;258;27494;-68
2022/01/29 07:36:39;;;;;;;14.55;7.87;;;2.00;99.90;;;;;;459885;258;27938;-68
2022/01/29 07:38:41;;;;;;;14.07;9.68;;;2.00;99.90;;;;;;459871;258;27938;-68
2022/01/29 07:40:42;;;;;;;15.25;11.85;;;2.00;99.90;;;;;;459872;258;28062;-68
2022/01/29 07:42:43;;;;;;;14.85;10.40;;;2.00;99.90;;;;;;459848;258;27503;-68
2022/01/29 07:44:44;;;;;;;13.07;9.45;;;2.00;99.90;;;;;;459841;258;27545;-69
2022/01/29 07:46:46;;;;;;;15.80;10.13;;;2.00;99.90;;;;;;459837;258;27448;-68
2022/01/29 07:48:47;;;;;;;13.65;7.55;;;2.00;99.90;;;;;;459875;258;27467;-68
2022/01/29 07:50:48;;;;;;;13.23;8.80;;;2.00;99.90;;;;;;459879;258;27598;-68
2022/01/29 07:52:49;;;;;;;12.25;7.30;;;2.00;99.90;;;;;;459866;258;27555;-68
2022/01/29 07:54:51;;;;;;;13.38;8.07;;;2.00;99.90;;;;;;459860;258;27959;-69
2022/01/29 07:56:52;;;;;;;11.23;7.20;;;2.10;99.90;;;;;;459860;258;28814;-68
2022/01/29 07:58:53;;;;;;;13.80;7.45;;;2.00;99.90;;;;;;459857;258;27913;-68
2022/01/29 08:00:54;;;;;;;12.55;7.78;;;2.10;99.90;;;;;;459875;258;27628;-69
2022/01/29 08:02:56;;;;;;;10.10;7.15;;;2.10;99.90;;;;;;459875;258;27475;-68
2022/01/29 08:04:57;;;;;;;11.45;6.62;;;2.10;99.90;;;;;;459865;258;27498;-68
2022/01/29 08:06:58;;;;;;;12.23;7.57;;;2.20;99.90;;;;;;459876;258;27511;-68
2022/01/29 08:09:00;;;;;;;12.77;7.37;;;2.20;99.90;;;;;;459882;258;27567;-68
2022/01/29 08:11:01;;;;;;;11.20;6.75;;;2.20;99.90;;;;;;459898;258;27503;-68
2022/01/29 08:13:02;;;;;;;11.50;6.75;;;2.20;99.90;;;;;;459858;258;27550;-68
2022/01/29 08:15:03;;;;;;;11.02;6.35;;;2.20;99.90;;;;;;459855;258;27972;-68
2022/01/29 08:17:05;;;;;;;11.90;7.57;;;2.30;99.90;;;;;;459910;258;27997;-68
2022/01/29 08:19:06;;;;;;;12.15;9.18;;;2.30;99.90;;;;;;459885;258;27466;-68
2022/01/29 08:21:07;;;;;;;12.48;9.82;;;2.30;99.90;;;;;;459885;258;27496;-68
2022/01/29 08:23:08;;;;;;;14.65;10.27;;;2.30;99.90;;;;;;459855;258;27612;-69
2022/01/29 08:25:10;;;;;;;14.70;9.95;;;2.40;99.90;;;;;;459869;258;27587;-68
2022/01/29 08:27:11;;;;;;;11.27;8.57;;;2.30;99.90;;;;;;459858;258;27507;-68
2022/01/29 08:29:12;;;;;;;10.30;7.85;;;2.30;99.90;;;;;;459871;258;27595;-68
2022/01/29 08:31:13;;;;;;;8.80;7.20;;;2.40;99.90;;;;;;459879;258;27562;-68
2022/01/29 08:33:18;;;;;;;10.52;7.35;;;2.40;99.90;;;;;;459842;258;27511;-68
2022/01/29 08:35:16;;;;;;;8.10;6.40;;;2.40;99.90;;;;;;459870;258;27934;-68
2022/01/29 08:37:17;;;;;;;10.48;7.15;;;2.50;99.90;;;;;;459880;258;27987;-68
2022/01/29 08:39:18;;;;;;;9.15;6.30;;;2.50;99.90;;;;;;459870;258;28026;-68
2022/01/29 08:41:20;;;;;;;9.68;6.53;;;2.60;99.90;;;;;;459854;258;27526;-68
2022/01/29 08:43:21;;;;;;;12.82;6.07;;;2.50;99.90;;;;;;459840;258;27503;-68
2022/01/29 08:45:22;;;;;;;8.13;5.97;;;2.50;99.90;;;;;;459893;258;27567;-68
2022/01/29 08:47:23;;;;;;;7.80;5.85;;;2.50;99.90;;;;;;459871;258;27498;-68
2022/01/29 08:49:25;;;;;;;9.90;6.25;;;2.40;99.90;;;;;;459862;258;27518;-68
2022/01/29 08:51:26;;;;;;;9.48;5.80;;;2.40;99.90;;;;;;459853;258;27506;-68
2022/01/29 08:53:27;;;;;;;8.23;5.95;;;2.40;99.90;;;;;;459871;258;27495;-68
2022/01/29 08:55:36;;;;;;;8.18;6.30;;;2.40;99.90;;;;;;459882;258;27475;-68
2022/01/29 08:57:30;;;;;;;9.27;6.70;;;2.40;99.90;;;;;;459862;258;27506;-69
2022/01/29 08:59:31;;;;;;;8.82;6.20;;;2.30;99.90;;;;;;459868;258;28028;-68
2022/01/29 09:01:32;;;;;;;7.12;5.75;;;2.40;99.90;;;;;;459841;258;27938;-68
2022/01/29 09:03:33;;;;;;;8.32;5.80;;;2.40;99.90;;;;;;459870;258;27999;-68
2022/01/29 09:05:35;;;;;;;7.93;6.03;;;2.30;99.90;;;;;;459882;258;27990;-68
2022/01/29 09:07:36;;;;;;;8.82;6.22;;;2.40;99.90;;;;;;459867;258;27582;-68
2022/01/29 09:09:40;;;;;;;7.55;5.65;;;2.40;99.90;;;;;;459868;258;27530;-68
2022/01/29 09:11:38;;;;;;;9.80;5.87;;;2.40;99.90;;;;;;459866;258;27575;-68
2022/01/29 09:13:40;;;;;;;6.72;5.47;;;2.40;99.90;;;;;;459900;258;27539;-68
2022/01/29 09:15:41;;;;;;;7.75;5.70;;;2.50;99.90;;;;;;459892;258;27451;-68
2022/01/29 09:17:42;;;;;;;6.40;5.50;;;2.50;99.90;;;;;;459886;258;27626;-68
2022/01/29 09:19:43;;;;;;;6.25;5.45;;;2.50;99.90;;;;;;459869;258;27563;-68
2022/01/29 09:21:45;;;;;;;8.05;5.65;;;2.50;99.90;;;;;;459887;258;27499;-68
2022/01/29 09:23:46;;;;;;;6.10;4.68;;;2.50;99.90;;;;;;459859;258;27502;-68
2022/01/29 09:25:47;;;;;;;7.93;5.25;;;2.50;99.90;;;;;;459878;258;27622;-68
2022/01/29 09:27:48;;;;;;;7.57;4.85;;;2.60;99.90;;;;;;459879;258;28058;-68
2022/01/29 09:29:50;;;;;;;6.80;4.72;;;2.60;99.90;;;;;;459859;258;28654;-69
2022/01/29 09:31:51;;;;;;;6.20;4.80;;;2.60;99.90;;;;;;459899;258;28019;-68
2022/01/29 09:33:52;;;;;;;6.57;4.72;;;2.70;99.90;;;;;;459875;258;27961;-68
2022/01/29 09:35:53;;;;;;;5.95;4.80;;;2.60;99.90;;;;;;459895;258;27543;-68
2022/01/29 09:37:55;;;;;;;6.18;5.57;;;2.70;99.90;;;;;;459876;258;27498;-68
2022/01/29 09:39:56;;;;;;;9.65;8.35;;;2.70;99.90;;;;;;459877;258;27484;-68
2022/01/29 09:41:57;;;;;;;8.05;7.03;;;2.70;99.90;;;;;;459875;258;27463;-68
2022/01/29 09:43:58;;;;;;;6.95;5.80;;;2.70;99.90;;;;;;459865;258;27538;-68
2022/01/29 09:46:00;;;;;;;8.45;5.68;;;2.60;99.90;;;;;;459884;258;27479;-69
2022/01/29 09:48:04;;;;;;;8.57;5.40;;;2.70;99.90;;;;;;459866;258;27506;-68
2022/01/29 09:50:05;;;;;;;6.53;5.18;;;2.70;99.90;;;;;;459870;258;28059;-68
2022/01/29 09:52:06;;;;;;;5.62;4.55;;;2.70;99.90;;;;;;459872;258;28186;-68
2022/01/29 09:54:07;;;;;;;5.90;4.70;;;2.70;99.90;;;;;;459882;258;27922;-69
2022/01/29 09:56:09;;;;;;;5.18;4.30;;;2.60;99.90;;;;;;459883;258;28085;-68
2022/01/29 09:58:10;;;;;;;4.78;4.05;;;2.60;99.90;;;;;;459894;258;27549;-68
2022/01/29 10:00:11;;;;;;;5.65;4.15;;;2.60;99.90;;;;;;459859;258;27495;-69
2022/01/29 10:02:12;;;;;;;5.57;4.03;;;2.70;99.90;;;;;;459895;258;27582;-68
2022/01/29 10:04:14;;;;;;;3.87;3.50;;;2.70;99.90;;;;;;459868;258;27561;-68
2022/01/29 10:06:19;;;;;;;5.95;4.40;;;2.70;99.90;;;;;;459884;258;27495;-69
2022/01/29 10:08:19;;;;;;;4.35;3.87;;;2.60;99.90;;;;;;459854;258;27555;-68
2022/01/29 10:10:20;;;;;;;6.30;4.37;;;2.70;99.90;;;;;;459864;258;27938;-68
2022/01/29 10:12:21;;;;;;;5.25;4.20;;;2.70;99.90;;;;;;459873;258;28079;-68
2022/01/29 10:14:22;;;;;;;5.80;4.37;;;2.60;99.90;;;;;;459898;254;29146;-68
2022/01/29 10:16:25;;;;;;;4.80;4.32;;;2.60;99.90;;;;;;459893;258;27604;-68
2022/01/29 10:18:25;;;;;;;5.05;4.05;;;2.70;99.90;;;;;;459888;258;27510;-69
2022/01/29 10:20:26;;;;;;;5.75;3.90;;;2.70;99.90;;;;;;459858;258;27547;-68
2022/01/29 10:22:27;;;;;;;5.50;4.12;;;2.70;99.90;;;;;;459854;258;27502;-68
2022/01/29 10:24:29;;;;;;;4.97;4.45;;;2.70;99.90;;;;;;459856;258;27535;-68
2022/01/29 10:26:30;;;;;;;4.40;4.00;;;2.70;99.90;;;;;;459869;258;27562;-68
2022/01/29 10:28:31;;;;;;;4.93;4.22;;;2.70;99.90;;;;;;459892;258;27518;-68
2022/01/29 10:30:32;;;;;;;4.90;4.30;;;2.70;99.90;;;;;;459874;258;27515;-68
2022/01/29 10:32:35;;;;;;;5.20;4.45;;;2.70;99.90;;;;;;459861;258;27571;-68
2022/01/29 10:34:35;;;;;;;5.10;4.18;;;2.70;99.90;;;;;;459895;258;27517;-68
2022/01/29 10:36:36;;;;;;;5.55;4.90;;;2.80;99.90;;;;;;459887;258;27942;-68
2022/01/29 10:38:37;;;;;;;6.62;4.37;;;2.70;99.90;;;;;;459894;258;27981;-68
2022/01/29 10:40:39;;;;;;;4.80;3.90;;;2.80;99.90;;;;;;459884;258;28783;-68
2022/01/29 10:42:40;;;;;;;4.97;4.28;;;2.80;99.90;;;;;;459898;258;27927;-68